createdAt,value
2023-06-15T00:00:47.358Z,60.58
2023-06-15T00:03:13.699Z,60.52
2023-06-15T00:05:40.006Z,61.34
2023-06-15T00:08:06.188Z,61.33
2023-06-15T00:10:32.338Z,61.00
2023-06-15T00:12:58.495Z,60.88
2023-06-15T00:15:24.653Z,61.01
2023-06-15T00:17:50.847Z,61.56
2023-06-15T00:20:17.013Z,61.08
2023-06-15T00:22:43.173Z,61.05
2023-06-15T00:25:09.346Z,62.04
2023-06-15T00:27:35.505Z,60.88
2023-06-15T00:30:01.672Z,61.46
2023-06-15T00:32:27.939Z,61.90
2023-06-15T00:34:54.274Z,61.55
2023-06-15T00:37:20.433Z,62.42
2023-06-15T00:39:46.598Z,62.63
2023-06-15T00:42:12.741Z,62.32
2023-06-15T00:44:38.915Z,60.89
2023-06-15T00:47:05.107Z,60.88
2023-06-15T00:49:31.304Z,61.11
2023-06-15T00:51:57.447Z,61.30
2023-06-15T00:54:23.620Z,61.45
2023-06-15T00:56:49.785Z,59.67
2023-06-15T00:59:15.931Z,60.03
2023-06-15T01:01:42.113Z,59.99
2023-06-15T01:04:08.320Z,59.72
2023-06-15T01:06:34.507Z,59.74
2023-06-15T01:09:00.653Z,60.51
2023-06-15T01:11:28.592Z,61.11
2023-06-15T01:13:56.665Z,61.07
2023-06-15T01:16:22.835Z,60.65
2023-06-15T01:18:48.987Z,60.34
2023-06-15T01:21:15.152Z,60.43
2023-06-15T01:23:41.319Z,61.56
2023-06-15T01:26:07.481Z,60.89
2023-06-15T01:28:33.643Z,60.99
2023-06-15T01:30:59.837Z,61.94
2023-06-15T01:33:26.026Z,62.53
2023-06-15T01:35:52.190Z,62.97
2023-06-15T01:38:18.361Z,63.04
2023-06-15T01:40:44.534Z,61.92
2023-06-15T01:43:10.693Z,62.47
2023-06-15T01:45:36.932Z,62.74
2023-06-15T01:48:03.162Z,62.49
2023-06-15T01:50:29.391Z,62.65
2023-06-15T01:52:55.526Z,61.58
2023-06-15T01:55:21.708Z,61.15
2023-06-15T01:57:47.884Z,61.66
2023-06-15T02:00:14.016Z,62.10
2023-06-15T02:02:40.192Z,62.27
2023-06-15T02:05:06.344Z,62.83
2023-06-15T02:07:32.497Z,62.72
2023-06-15T02:09:58.659Z,62.84
2023-06-15T02:12:24.810Z,62.74
2023-06-15T02:14:50.966Z,62.78
2023-06-15T02:17:17.121Z,62.75
2023-06-15T02:19:43.286Z,62.23
2023-06-15T02:22:09.462Z,62.03
2023-06-15T02:24:35.677Z,61.68
2023-06-15T02:27:01.856Z,62.23
2023-06-15T02:29:28.039Z,61.81
2023-06-15T02:31:54.165Z,61.77
2023-06-15T02:34:20.331Z,62.58
2023-06-15T02:36:46.519Z,62.04
2023-06-15T02:39:12.670Z,61.97
2023-06-15T02:41:38.804Z,62.82
2023-06-15T02:44:04.941Z,63.58
2023-06-15T02:46:31.104Z,63.30
2023-06-15T02:48:57.269Z,63.02
2023-06-15T02:51:23.417Z,62.56
2023-06-15T02:53:49.579Z,63.00
2023-06-15T02:56:15.746Z,62.86
2023-06-15T02:58:41.886Z,63.11
2023-06-15T03:01:08.021Z,63.90
2023-06-15T03:03:34.196Z,63.27
2023-06-15T03:08:26.573Z,61.95
2023-06-15T03:10:52.752Z,62.19
2023-06-15T03:13:18.906Z,63.93
2023-06-15T03:15:45.057Z,63.58
2023-06-15T03:18:11.248Z,63.27
2023-06-15T03:20:37.512Z,63.57
2023-06-15T03:23:03.721Z,63.90
2023-06-15T03:25:29.896Z,64.39
2023-06-15T03:27:56.256Z,64.29
2023-06-15T03:30:22.389Z,64.41
2023-06-15T03:32:48.545Z,64.11
2023-06-15T03:35:14.783Z,63.48
2023-06-15T03:37:40.945Z,62.27
2023-06-15T03:40:07.098Z,62.62
2023-06-15T03:42:33.262Z,62.87
2023-06-15T03:44:59.422Z,63.31
2023-06-15T03:47:25.644Z,63.36
2023-06-15T03:49:51.833Z,63.96
2023-06-15T03:52:17.979Z,63.55
2023-06-15T03:54:44.142Z,63.56
2023-06-15T03:57:10.311Z,63.15
2023-06-15T03:59:36.482Z,62.71
2023-06-15T04:02:02.664Z,63.19
2023-06-15T04:04:28.914Z,63.35
2023-06-15T04:06:55.108Z,63.01
2023-06-15T04:09:21.270Z,63.31
2023-06-15T04:11:47.444Z,62.73
2023-06-15T04:14:13.588Z,63.29
2023-06-15T04:16:39.725Z,63.42
2023-06-15T04:19:05.881Z,63.73
2023-06-15T04:21:32.020Z,63.87
2023-06-15T04:23:58.221Z,63.78
2023-06-15T04:26:24.415Z,63.16
2023-06-15T04:28:50.550Z,63.46
2023-06-15T04:31:16.715Z,63.34
2023-06-15T04:33:42.854Z,63.12
2023-06-15T04:36:08.990Z,62.75
2023-06-15T04:38:35.139Z,63.57
2023-06-15T04:41:01.838Z,63.60
2023-06-15T04:43:28.206Z,63.40
2023-06-15T04:45:54.371Z,63.23
2023-06-15T04:48:20.512Z,63.62
2023-06-15T04:50:46.701Z,63.95
2023-06-15T04:53:12.865Z,63.37
2023-06-15T04:55:39.018Z,62.97
2023-06-15T04:58:05.149Z,63.04
2023-06-15T05:00:33.644Z,63.31
2023-06-15T05:03:00.058Z,63.41
2023-06-15T05:05:26.362Z,62.25
2023-06-15T05:07:52.503Z,61.15
2023-06-15T05:10:18.658Z,60.67
2023-06-15T05:12:44.805Z,60.73
2023-06-15T05:15:10.975Z,61.95
2023-06-15T05:17:37.149Z,63.09
2023-06-15T05:20:03.406Z,62.06
2023-06-15T05:22:29.567Z,62.09
2023-06-15T05:24:55.727Z,61.95
2023-06-15T05:27:21.908Z,62.22
2023-06-15T05:29:48.076Z,62.96
2023-06-15T05:32:14.238Z,62.64
2023-06-15T05:34:40.373Z,62.54
2023-06-15T05:37:06.528Z,62.21
2023-06-15T05:39:32.693Z,61.68
2023-06-15T05:41:58.880Z,61.98
2023-06-15T05:44:25.050Z,62.25
2023-06-15T05:46:51.222Z,61.97
2023-06-15T05:49:17.384Z,61.34
2023-06-15T05:51:43.573Z,61.62
2023-06-15T05:54:09.784Z,61.13
2023-06-15T05:56:35.950Z,60.21
2023-06-15T05:59:02.093Z,59.28
2023-06-15T06:01:28.264Z,59.72
2023-06-15T06:03:54.449Z,57.76
2023-06-15T06:06:20.641Z,58.05
2023-06-15T06:08:46.828Z,57.42
2023-06-15T06:11:12.981Z,58.26
2023-06-15T06:13:39.161Z,58.60
2023-06-15T06:16:05.310Z,58.72
2023-06-15T06:18:31.585Z,58.00
2023-06-15T06:20:57.830Z,57.10
2023-06-15T06:23:23.987Z,57.38
2023-06-15T06:25:50.182Z,57.53
2023-06-15T06:28:16.350Z,56.87
2023-06-15T06:30:42.490Z,56.52
2023-06-15T06:33:08.725Z,56.15
2023-06-15T06:35:34.925Z,52.29
2023-06-15T06:38:01.056Z,50.36
2023-06-15T06:40:27.431Z,47.92
2023-06-15T06:42:53.623Z,47.82
2023-06-15T06:45:20.040Z,47.07
2023-06-15T06:47:46.415Z,46.53
2023-06-15T06:50:12.644Z,47.75
2023-06-15T06:52:38.797Z,47.12
2023-06-15T06:55:04.961Z,45.22
2023-06-15T06:57:31.136Z,47.43
2023-06-15T06:59:57.293Z,44.05
2023-06-15T07:02:24.599Z,45.38
2023-06-15T07:04:50.835Z,43.23
2023-06-15T07:07:16.974Z,44.52
2023-06-15T07:09:43.151Z,43.69
2023-06-15T07:12:09.320Z,44.61
2023-06-15T07:14:35.479Z,45.41
2023-06-15T07:17:01.675Z,44.56
2023-06-15T07:19:27.806Z,44.66
2023-06-15T07:21:53.965Z,44.79
2023-06-15T07:24:20.195Z,42.56
2023-06-15T07:26:46.381Z,41.71
2023-06-15T07:29:12.528Z,40.92
2023-06-15T07:31:38.702Z,41.32
2023-06-15T07:34:04.878Z,37.01
2023-06-15T07:36:31.047Z,41.03
2023-06-15T07:38:57.215Z,37.42
2023-06-15T07:41:23.398Z,39.50
2023-06-15T07:43:49.628Z,38.03
2023-06-15T07:46:15.794Z,37.65
2023-06-15T07:48:41.930Z,37.66
2023-06-15T07:51:08.117Z,37.48
2023-06-15T07:53:34.288Z,37.99
2023-06-15T07:56:00.492Z,39.12
2023-06-15T07:58:26.659Z,38.76
2023-06-15T08:00:52.797Z,38.91
2023-06-15T08:03:19.029Z,38.62
2023-06-15T08:05:45.288Z,39.40
2023-06-15T08:08:11.466Z,39.16
2023-06-15T08:10:38.263Z,38.98
2023-06-15T08:13:05.139Z,40.47
2023-06-15T08:15:31.323Z,40.20
2023-06-15T08:17:57.525Z,38.76
2023-06-15T08:20:23.765Z,40.55
2023-06-15T08:22:49.933Z,38.92
2023-06-15T08:25:16.094Z,38.84
2023-06-15T08:27:42.259Z,39.61
2023-06-15T08:30:08.678Z,39.60
2023-06-15T08:32:34.896Z,38.86
2023-06-15T08:35:01.058Z,39.67
2023-06-15T08:37:27.220Z,39.55
2023-06-15T08:39:53.364Z,39.61
2023-06-15T08:42:19.733Z,37.82
2023-06-15T08:44:45.921Z,38.62
2023-06-15T08:47:12.080Z,38.16
2023-06-15T08:49:38.239Z,37.26
2023-06-15T08:52:04.381Z,37.47
2023-06-15T08:54:30.549Z,36.73
2023-06-15T08:56:56.680Z,38.21
2023-06-15T08:59:22.841Z,36.92
2023-06-15T09:01:49.047Z,37.11
2023-06-15T09:04:15.241Z,37.13
2023-06-15T09:06:41.419Z,36.99
2023-06-15T09:09:07.584Z,38.28
2023-06-15T09:11:34.356Z,38.93
2023-06-15T09:14:00.601Z,36.62
2023-06-15T09:16:26.801Z,36.80
2023-06-15T09:18:52.988Z,36.78
2023-06-15T09:21:19.156Z,38.53
2023-06-15T09:23:45.345Z,37.75
2023-06-15T09:26:11.511Z,37.09
2023-06-15T09:28:37.663Z,36.85
2023-06-15T09:31:03.839Z,37.93
2023-06-15T09:33:30.010Z,37.69
2023-06-15T09:35:56.165Z,36.21
2023-06-15T09:38:22.351Z,37.06
2023-06-15T09:40:48.484Z,37.24
2023-06-15T09:43:14.631Z,36.01
2023-06-15T09:45:40.803Z,35.40
2023-06-15T09:48:07.137Z,35.98
2023-06-15T09:50:33.337Z,35.43
2023-06-15T09:52:59.484Z,34.31
2023-06-15T09:55:25.642Z,35.63
2023-06-15T09:57:51.820Z,35.30
2023-06-15T10:00:18.279Z,35.64
2023-06-15T10:02:44.778Z,34.92
2023-06-15T10:05:11.011Z,36.31
2023-06-15T10:07:37.157Z,35.42
2023-06-15T10:10:03.313Z,35.10
2023-06-15T10:12:29.488Z,35.22
2023-06-15T10:14:55.648Z,34.94
2023-06-15T10:17:21.819Z,36.16
2023-06-15T10:19:47.967Z,33.54
2023-06-15T10:22:14.134Z,34.19
2023-06-15T10:24:40.305Z,33.07
2023-06-15T10:27:06.477Z,34.05
2023-06-15T10:29:32.611Z,34.34
2023-06-15T10:31:58.778Z,33.09
2023-06-15T10:34:24.954Z,34.06
2023-06-15T10:36:51.120Z,34.79
2023-06-15T10:39:17.270Z,33.00
2023-06-15T10:41:43.529Z,31.69
2023-06-15T10:44:09.711Z,30.13
2023-06-15T10:46:35.868Z,32.29
2023-06-15T10:49:02.026Z,30.34
2023-06-15T10:51:28.173Z,31.20
2023-06-15T10:53:54.302Z,30.83
2023-06-15T10:56:20.464Z,30.67
2023-06-15T10:58:46.651Z,31.43
2023-06-15T11:01:12.775Z,31.76
2023-06-15T11:03:38.922Z,30.40
2023-06-15T11:06:05.105Z,30.08
2023-06-15T11:08:31.274Z,31.11
2023-06-15T11:10:57.443Z,29.96
2023-06-15T11:13:23.577Z,30.55
2023-06-15T11:15:49.714Z,30.13
2023-06-15T11:18:15.898Z,31.56
2023-06-15T11:20:42.188Z,28.57
2023-06-15T11:23:08.460Z,29.78
2023-06-15T11:25:34.687Z,30.17
2023-06-15T11:28:00.849Z,31.57
2023-06-15T11:30:27.002Z,29.66
2023-06-15T11:32:53.176Z,29.42
2023-06-15T11:35:19.356Z,29.08
2023-06-15T11:37:45.516Z,27.43
2023-06-15T11:40:11.882Z,29.90
2023-06-15T11:42:38.084Z,28.49
2023-06-15T11:45:04.225Z,28.39
2023-06-15T11:47:30.404Z,29.55
2023-06-15T11:49:56.670Z,31.36
2023-06-15T11:52:22.818Z,28.63
2023-06-15T11:54:53.813Z,27.99
2023-06-15T11:57:20.865Z,28.28
2023-06-15T11:59:47.026Z,28.42
2023-06-15T12:02:13.182Z,27.29
2023-06-15T12:04:39.451Z,26.95
2023-06-15T12:07:05.653Z,25.78
2023-06-15T12:09:31.952Z,25.79
2023-06-15T12:11:58.135Z,27.08
2023-06-15T12:14:24.310Z,26.75
2023-06-15T12:16:50.612Z,26.78
2023-06-15T12:19:16.818Z,25.62
2023-06-15T12:21:42.969Z,27.12
2023-06-15T12:24:09.175Z,28.02
2023-06-15T12:26:35.387Z,28.11
2023-06-15T12:29:01.553Z,28.33
2023-06-15T12:31:27.854Z,28.30
2023-06-15T12:33:56.403Z,28.08
2023-06-15T12:36:22.923Z,28.25
2023-06-15T12:38:49.122Z,29.60
2023-06-15T12:41:15.308Z,28.08
2023-06-15T12:43:41.440Z,28.00
2023-06-15T12:46:07.917Z,29.17
2023-06-15T12:48:34.080Z,28.17
2023-06-15T12:51:00.237Z,28.63
2023-06-15T12:53:26.400Z,27.15
2023-06-15T12:55:52.547Z,27.68
2023-06-15T12:58:18.704Z,27.74
2023-06-15T13:00:44.845Z,26.59
2023-06-15T13:03:11.095Z,28.00
2023-06-15T13:05:37.368Z,27.69
2023-06-15T13:08:03.540Z,28.46
2023-06-15T13:10:29.712Z,29.02
2023-06-15T13:12:55.911Z,27.45
2023-06-15T13:15:22.063Z,29.00
2023-06-15T13:17:48.261Z,29.34
2023-06-15T13:20:14.562Z,28.96
2023-06-15T13:22:40.770Z,30.86
2023-06-15T13:25:06.937Z,29.86
2023-06-15T13:27:33.099Z,30.35
2023-06-15T13:29:59.422Z,30.83
2023-06-15T13:32:25.607Z,29.70
2023-06-15T13:34:51.771Z,30.71
2023-06-15T13:37:18.037Z,30.23
2023-06-15T13:39:44.215Z,30.93
2023-06-15T13:42:10.393Z,30.85
2023-06-15T13:44:36.557Z,29.75
2023-06-15T13:47:02.715Z,29.30
2023-06-15T13:49:28.865Z,29.14
2023-06-15T13:51:55.052Z,29.72
2023-06-15T13:54:21.216Z,29.81
2023-06-15T13:56:47.378Z,29.25
2023-06-15T13:59:13.519Z,29.57
2023-06-15T14:01:39.678Z,30.98
2023-06-15T14:04:05.932Z,31.67
2023-06-15T14:06:32.210Z,30.47
2023-06-15T14:08:58.367Z,29.89
2023-06-15T14:11:24.525Z,29.61
2023-06-15T14:13:50.672Z,29.05
2023-06-15T14:16:16.980Z,29.88
2023-06-15T14:18:43.153Z,28.97
2023-06-15T14:21:09.311Z,29.19
2023-06-15T14:23:37.989Z,29.53
2023-06-15T14:26:04.158Z,29.74
2023-06-15T14:28:30.321Z,29.53
2023-06-15T14:30:56.487Z,30.66
2023-06-15T14:33:22.640Z,30.65
2023-06-15T14:35:48.775Z,30.54
2023-06-15T14:38:15.063Z,30.72
2023-06-15T14:40:41.200Z,30.53
2023-06-15T14:43:07.330Z,29.31
2023-06-15T14:45:33.536Z,30.63
2023-06-15T14:48:03.987Z,30.31
2023-06-15T14:50:30.181Z,29.90
2023-06-15T14:52:56.325Z,28.97
2023-06-15T14:55:22.492Z,29.88
2023-06-15T14:57:48.868Z,29.27
2023-06-15T15:00:15.347Z,29.12
2023-06-15T15:02:41.813Z,30.16
2023-06-15T15:05:08.019Z,30.04
2023-06-15T15:07:35.145Z,29.71
2023-06-15T15:10:01.958Z,31.36
2023-06-15T15:12:28.093Z,31.04
2023-06-15T15:14:54.248Z,31.28
2023-06-15T15:17:20.382Z,30.75
2023-06-15T15:19:46.508Z,29.78
2023-06-15T15:22:12.671Z,30.29
2023-06-15T15:24:38.873Z,30.36
2023-06-15T15:27:05.111Z,29.31
2023-06-15T15:29:31.393Z,30.94
2023-06-15T15:31:57.693Z,28.84
2023-06-15T15:34:23.913Z,29.24
2023-06-15T15:36:50.114Z,29.23
2023-06-15T15:39:16.330Z,29.67
2023-06-15T15:41:42.489Z,28.32
2023-06-15T15:44:08.671Z,28.42
2023-06-15T15:46:34.899Z,27.81
2023-06-15T15:49:01.460Z,29.23
2023-06-15T15:51:27.596Z,29.15
2023-06-15T15:53:53.824Z,29.48
2023-06-15T15:56:19.988Z,30.23
2023-06-15T15:58:46.169Z,29.92
2023-06-15T16:01:12.359Z,29.50
2023-06-15T16:03:38.618Z,29.64
2023-06-15T16:06:04.929Z,29.25
2023-06-15T16:08:31.081Z,29.66
2023-06-15T16:10:57.245Z,29.01
2023-06-15T16:13:23.401Z,29.37
2023-06-15T16:16:01.471Z,29.26
2023-06-15T16:18:35.674Z,29.47
2023-06-15T16:21:01.839Z,30.66
2023-06-15T16:23:27.997Z,32.03
2023-06-15T16:25:54.128Z,32.04
2023-06-15T16:28:20.295Z,31.74
2023-06-15T16:30:46.444Z,31.69
2023-06-15T16:33:12.664Z,30.60
2023-06-15T16:35:38.986Z,31.68
2023-06-15T16:38:05.324Z,31.84
2023-06-15T16:40:31.489Z,32.90
2023-06-15T16:42:57.662Z,33.14
2023-06-15T16:45:23.951Z,33.35
2023-06-15T16:47:50.194Z,34.18
2023-06-15T16:50:16.672Z,34.44
2023-06-15T16:52:43.216Z,34.36
2023-06-15T16:55:09.366Z,34.50
2023-06-15T16:57:35.497Z,33.10
2023-06-15T17:00:01.650Z,33.30
2023-06-15T17:02:27.888Z,33.80
2023-06-15T17:04:54.104Z,33.31
2023-06-15T17:07:20.297Z,32.82
2023-06-15T17:09:46.468Z,33.31
2023-06-15T17:12:12.629Z,33.39
2023-06-15T17:14:38.780Z,32.20
2023-06-15T17:17:04.947Z,32.33
2023-06-15T17:19:31.126Z,31.31
2023-06-15T17:21:57.285Z,32.75
2023-06-15T17:24:23.501Z,32.10
2023-06-15T17:26:49.697Z,31.79
2023-06-15T17:29:15.873Z,33.03
2023-06-15T17:31:42.012Z,33.32
2023-06-15T17:34:08.181Z,33.24
2023-06-15T17:36:34.332Z,33.09
2023-06-15T17:39:00.470Z,32.38
2023-06-15T17:41:26.638Z,32.06
2023-06-15T17:43:52.843Z,32.83
2023-06-15T17:46:19.140Z,33.74
2023-06-15T17:48:45.333Z,33.78
2023-06-15T17:51:11.497Z,33.81
2023-06-15T17:53:37.670Z,34.11
2023-06-15T17:56:03.835Z,35.52
2023-06-15T17:58:29.972Z,35.77
2023-06-15T18:00:56.139Z,35.55
2023-06-15T18:03:22.415Z,34.62
2023-06-15T18:05:48.690Z,34.02
2023-06-15T18:08:14.868Z,33.96
2023-06-15T18:10:41.020Z,34.26
2023-06-15T18:13:07.307Z,34.39
2023-06-15T18:15:34.939Z,34.37
2023-06-15T18:18:01.439Z,34.93
2023-06-15T18:20:27.620Z,34.95
2023-06-15T18:22:54.073Z,34.12
2023-06-15T18:25:20.461Z,34.46
2023-06-15T18:27:46.859Z,36.34
2023-06-15T18:30:13.003Z,38.82
2023-06-15T18:32:39.162Z,38.23
2023-06-15T18:35:05.360Z,37.49
2023-06-15T18:37:31.516Z,36.25
2023-06-15T18:39:57.683Z,36.23
2023-06-15T18:42:23.830Z,37.93
2023-06-15T18:44:49.984Z,40.36
2023-06-15T18:47:16.164Z,40.39
2023-06-15T18:49:42.306Z,40.11
2023-06-15T18:52:08.464Z,39.32
2023-06-15T18:54:34.601Z,39.06
2023-06-15T18:57:00.745Z,38.65
2023-06-15T18:59:26.900Z,39.89
2023-06-15T19:01:53.117Z,40.17
2023-06-15T19:04:19.283Z,40.72
2023-06-15T19:06:45.421Z,42.98
2023-06-15T19:09:11.570Z,43.85
2023-06-15T19:11:37.720Z,42.94
2023-06-15T19:14:03.909Z,43.91
2023-06-15T19:16:30.113Z,43.37
2023-06-15T19:18:56.273Z,43.64
2023-06-15T19:21:22.434Z,43.64
2023-06-15T19:23:51.394Z,44.97
2023-06-15T19:26:17.954Z,45.86
2023-06-15T19:28:44.151Z,44.92
2023-06-15T19:31:10.304Z,44.65
2023-06-15T19:33:36.470Z,45.80
2023-06-15T19:36:02.684Z,46.11
2023-06-15T19:38:28.964Z,46.33
2023-06-15T19:40:57.782Z,46.66
2023-06-15T19:43:24.509Z,46.18
2023-06-15T19:45:50.680Z,47.25
2023-06-15T19:48:16.935Z,47.02
2023-06-15T19:50:43.103Z,46.78
2023-06-15T19:53:09.268Z,45.31
2023-06-15T19:55:35.547Z,46.74
2023-06-15T19:58:01.705Z,48.20
2023-06-15T20:00:28.221Z,48.23
2023-06-15T20:02:54.425Z,47.96
2023-06-15T20:05:20.636Z,48.18
2023-06-15T20:07:46.792Z,48.51
2023-06-15T20:10:12.939Z,48.22
2023-06-15T20:12:39.102Z,48.66
2023-06-15T20:15:05.268Z,48.88
2023-06-15T20:17:31.411Z,49.48
2023-06-15T20:19:57.639Z,48.49
2023-06-15T20:22:23.795Z,48.42
2023-06-15T20:24:49.966Z,48.48
2023-06-15T20:27:16.240Z,48.56
2023-06-15T20:29:42.447Z,49.00
2023-06-15T20:32:08.819Z,48.70
2023-06-15T20:34:34.987Z,48.96
2023-06-15T20:37:01.137Z,49.41
2023-06-15T20:39:27.328Z,49.35
2023-06-15T20:41:53.469Z,49.94
2023-06-15T20:44:19.620Z,49.08
2023-06-15T20:46:45.795Z,49.92
2023-06-15T20:49:12.009Z,51.20
2023-06-15T20:51:38.213Z,50.50
2023-06-15T20:54:04.351Z,49.53
2023-06-15T20:56:30.594Z,49.54
2023-06-15T20:58:56.807Z,49.04
2023-06-15T21:01:23.309Z,49.34
2023-06-15T21:03:49.584Z,49.79
2023-06-15T21:06:15.803Z,49.96
2023-06-15T21:08:41.997Z,49.95
2023-06-15T21:11:08.171Z,50.99
2023-06-15T21:13:34.515Z,50.57
2023-06-15T21:16:01.248Z,51.35
2023-06-15T21:18:27.418Z,51.44
2023-06-15T21:20:53.602Z,50.87
2023-06-15T21:23:19.763Z,50.61
2023-06-15T21:25:45.929Z,50.68
2023-06-15T21:28:12.090Z,52.24
2023-06-15T21:30:38.250Z,51.34
2023-06-15T21:33:04.501Z,51.77
2023-06-15T21:35:30.666Z,52.03
2023-06-15T21:37:56.809Z,51.52
2023-06-15T21:40:22.970Z,52.35
2023-06-15T21:42:49.608Z,51.30
2023-06-15T21:45:15.867Z,51.86
2023-06-15T21:47:42.008Z,50.77
2023-06-15T21:50:08.179Z,51.74
2023-06-15T21:52:34.325Z,51.08
2023-06-15T21:55:00.504Z,50.90
2023-06-15T21:57:26.633Z,51.06
2023-06-15T21:59:52.772Z,51.24
2023-06-15T22:02:18.934Z,51.83
2023-06-15T22:04:45.098Z,51.56
2023-06-15T22:07:11.264Z,51.07
2023-06-15T22:09:37.407Z,50.71
2023-06-15T22:12:04.260Z,52.88
2023-06-15T22:14:31.244Z,53.46
2023-06-15T22:16:57.422Z,52.35
2023-06-15T22:19:23.598Z,52.47
2023-06-15T22:21:49.738Z,52.98
2023-06-15T22:24:15.909Z,53.60
2023-06-15T22:26:42.088Z,53.79
2023-06-15T22:29:08.234Z,52.58
2023-06-15T22:31:34.421Z,53.25
2023-06-15T22:34:00.916Z,53.60
2023-06-15T22:36:27.083Z,53.86
2023-06-15T22:38:53.291Z,54.69
2023-06-15T22:41:19.439Z,54.89
2023-06-15T22:43:45.627Z,54.92
2023-06-15T22:46:11.795Z,54.07
2023-06-15T22:48:37.926Z,53.18
2023-06-15T22:51:04.089Z,52.63
2023-06-15T22:53:30.240Z,53.69
2023-06-15T22:55:56.394Z,53.80
2023-06-15T22:58:22.540Z,53.73
2023-06-15T23:00:48.737Z,55.16
2023-06-15T23:03:14.982Z,54.61
2023-06-15T23:05:41.177Z,54.69
2023-06-15T23:08:07.337Z,54.37
2023-06-15T23:10:33.528Z,54.13
2023-06-15T23:12:59.656Z,53.98
2023-06-15T23:15:25.845Z,54.88
2023-06-15T23:17:52.173Z,54.90
2023-06-15T23:20:18.813Z,55.64
2023-06-15T23:22:45.441Z,55.58
2023-06-15T23:25:11.579Z,55.20
2023-06-15T23:27:37.715Z,54.59
2023-06-15T23:30:03.878Z,55.16
2023-06-15T23:32:30.077Z,55.49
2023-06-15T23:34:56.250Z,55.56
2023-06-15T23:37:22.410Z,55.82
2023-06-15T23:39:48.568Z,55.83
2023-06-15T23:42:14.728Z,55.27
2023-06-15T23:44:40.904Z,55.00
2023-06-15T23:47:07.154Z,54.74
2023-06-15T23:49:33.319Z,54.90
2023-06-15T23:51:59.479Z,55.50
2023-06-15T23:54:25.619Z,55.43
2023-06-15T23:56:51.766Z,54.99
2023-06-15T23:59:17.908Z,55.60
